sensor_id;sensor_type;location;lat;lon;timestamp;pressure;altitude;pressure_sealevel;temperature;humidity
19150;BME280;9707;49.158;8.632;2022-10-26T00:00:40;100340.84;;;22.91;45.87
19150;BME280;9707;49.158;8.632;2022-10-26T00:03:05;100348.69;;;22.94;45.91
19150;BME280;9707;49.158;8.632;2022-10-26T00:05:34;100348.69;;;22.94;45.91
19150;BME280;9707;49.158;8.632;2022-10-26T00:08:00;100352.16;;;22.96;45.89
19150;BME280;9707;49.158;8.632;2022-10-26T00:10:26;100333.00;;;22.97;46.06
19150;BME280;9707;49.158;8.632;2022-10-26T00:12:51;100350.88;;;23.00;45.97
19150;BME280;9707;49.158;8.632;2022-10-26T00:15:17;100364.47;;;23.00;45.08
19150;BME280;9707;49.158;8.632;2022-10-26T00:17:43;100361.00;;;22.98;45.07
19150;BME280;9707;49.158;8.632;2022-10-26T00:20:09;100347.53;;;22.96;45.71
19150;BME280;9707;49.158;8.632;2022-10-26T00:22:35;100352.00;;;22.97;45.87
19150;BME280;9707;49.158;8.632;2022-10-26T00:25:00;100341.84;;;22.99;45.86
19150;BME280;9707;49.158;8.632;2022-10-26T00:27:25;100345.44;;;23.00;45.96
19150;BME280;9707;49.158;8.632;2022-10-26T00:29:51;100345.44;;;23.00;45.27
19150;BME280;9707;49.158;8.632;2022-10-26T00:32:16;100343.69;;;22.99;45.20
19150;BME280;9707;49.158;8.632;2022-10-26T00:34:41;100349.00;;;23.00;45.92
19150;BME280;9707;49.158;8.632;2022-10-26T00:37:07;100346.28;;;23.00;45.81
19150;BME280;9707;49.158;8.632;2022-10-26T00:39:32;100333.69;;;22.99;45.68
19150;BME280;9707;49.158;8.632;2022-10-26T00:41:57;100340.00;;;23.00;45.38
19150;BME280;9707;49.158;8.632;2022-10-26T00:49:55;100335.97;;;22.94;45.27
19150;BME280;9707;49.158;8.632;2022-10-26T00:52:22;100339.56;;;22.95;45.11
19150;BME280;9707;49.158;8.632;2022-10-26T00:54:48;100343.25;;;22.94;45.20
19150;BME280;9707;49.158;8.632;2022-10-26T00:57:14;100345.97;;;22.94;45.24
19150;BME280;9707;49.158;8.632;2022-10-26T00:59:41;100348.69;;;22.94;45.25
19150;BME280;9707;49.158;8.632;2022-10-26T01:02:09;100350.44;;;22.95;45.30
19150;BME280;9707;49.158;8.632;2022-10-26T01:04:35;100344.13;;;22.94;45.53
19150;BME280;9707;49.158;8.632;2022-10-26T01:07:02;100347.72;;;22.95;45.21
19150;BME280;9707;49.158;8.632;2022-10-26T01:09:28;100345.00;;;22.95;45.26
19150;BME280;9707;49.158;8.632;2022-10-26T01:11:54;100350.44;;;22.95;44.91
19150;BME280;9707;49.158;8.632;2022-10-26T01:14:20;100351.56;;;22.92;44.90
19150;BME280;9707;49.158;8.632;2022-10-26T01:17:00;100355.25;;;22.91;44.98
19150;BME280;9707;49.158;8.632;2022-10-26T01:20:00;100347.28;;;22.90;45.05
19150;BME280;9707;49.158;8.632;2022-10-26T01:23:08;100334.66;;;22.89;45.62
19150;BME280;9707;49.158;8.632;2022-10-26T01:26:00;100330.97;;;22.90;45.77
19150;BME280;9707;49.158;8.632;2022-10-26T01:31:29;100329.22;;;22.89;45.21
19150;BME280;9707;49.158;8.632;2022-10-26T01:34:13;100311.22;;;22.88;45.62
19150;BME280;9707;49.158;8.632;2022-10-26T01:36:48;100302.06;;;22.89;45.70
19150;BME280;9707;49.158;8.632;2022-10-26T01:39:22;100299.22;;;22.90;45.75
19150;BME280;9707;49.158;8.632;2022-10-26T01:41:56;100296.38;;;22.92;45.41
19150;BME280;9707;49.158;8.632;2022-10-26T01:44:30;100300.09;;;22.91;45.01
19150;BME280;9707;49.158;8.632;2022-10-26T01:46:58;100299.34;;;22.89;45.03
19150;BME280;9707;49.158;8.632;2022-10-26T01:49:28;100295.78;;;22.88;44.92
19150;BME280;9707;49.158;8.632;2022-10-26T01:51:55;100286.78;;;22.88;45.03
19150;BME280;9707;49.158;8.632;2022-10-26T01:54:20;100289.50;;;22.88;45.28
19150;BME280;9707;49.158;8.632;2022-10-26T01:56:51;100295.78;;;22.88;45.20
19150;BME280;9707;49.158;8.632;2022-10-26T02:05:13;100296.94;;;22.86;45.33
19150;BME280;9707;49.158;8.632;2022-10-26T02:10:36;100300.78;;;22.83;45.47
19150;BME280;9707;49.158;8.632;2022-10-26T02:13:19;100305.34;;;22.83;45.27
19150;BME280;9707;49.158;8.632;2022-10-26T02:15:53;100323.50;;;22.82;45.27
19150;BME280;9707;49.158;8.632;2022-10-26T02:18:46;100328.06;;;22.82;45.21
19150;BME280;9707;49.158;8.632;2022-10-26T02:21:17;100337.34;;;22.79;45.14
19150;BME280;9707;49.158;8.632;2022-10-26T02:23:45;100340.19;;;22.78;45.18
19150;BME280;9707;49.158;8.632;2022-10-26T02:26:15;100346.63;;;22.77;45.25
19150;BME280;9707;49.158;8.632;2022-10-26T02:28:45;100360.22;;;22.77;45.25
19150;BME280;9707;49.158;8.632;2022-10-26T02:31:13;100362.94;;;22.77;45.34
19150;BME280;9707;49.158;8.632;2022-10-26T02:33:41;100369.38;;;22.76;45.04
19150;BME280;9707;49.158;8.632;2022-10-26T02:36:11;100374.06;;;22.74;45.00
19150;BME280;9707;49.158;8.632;2022-10-26T02:38:38;100360.63;;;22.72;45.25
19150;BME280;9707;49.158;8.632;2022-10-26T02:41:06;100338.75;;;22.74;45.83
19150;BME280;9707;49.158;8.632;2022-10-26T02:43:36;100341.22;;;22.77;45.87
19150;BME280;9707;49.158;8.632;2022-10-26T02:46:07;100348.34;;;22.78;45.37
19150;BME280;9707;49.158;8.632;2022-10-26T02:48:33;100342.78;;;22.79;45.87
19150;BME280;9707;49.158;8.632;2022-10-26T02:51:06;100345.38;;;22.81;45.84
19150;BME280;9707;49.158;8.632;2022-10-26T02:56:11;100341.66;;;22.82;45.33
19150;BME280;9707;49.158;8.632;2022-10-26T02:58:44;100355.22;;;22.82;45.13
19150;BME280;9707;49.158;8.632;2022-10-26T03:01:12;100360.66;;;22.82;45.27
19150;BME280;9707;49.158;8.632;2022-10-26T03:03:37;100365.50;;;22.78;45.26
19150;BME280;9707;49.158;8.632;2022-10-26T03:06:03;100363.63;;;22.79;45.39
19150;BME280;9707;49.158;8.632;2022-10-26T03:08:28;100381.81;;;22.78;45.46
19150;BME280;9707;49.158;8.632;2022-10-26T03:10:53;100378.22;;;22.78;45.74
19150;BME280;9707;49.158;8.632;2022-10-26T03:13:19;100369.25;;;22.77;45.67
19150;BME280;9707;49.158;8.632;2022-10-26T03:15:44;100362.94;;;22.77;45.71
19150;BME280;9707;49.158;8.632;2022-10-26T03:18:09;100360.09;;;22.78;45.70
19150;BME280;9707;49.158;8.632;2022-10-26T03:20:35;100352.78;;;22.79;45.52
19150;BME280;9707;49.158;8.632;2022-10-26T03:23:00;100353.78;;;22.78;45.52
19150;BME280;9707;49.158;8.632;2022-10-26T03:25:25;100344.63;;;22.79;46.03
19150;BME280;9707;49.158;8.632;2022-10-26T03:28:01;100343.66;;;22.80;46.21
19150;BME280;9707;49.158;8.632;2022-10-26T03:30:28;100345.38;;;22.81;45.88
19150;BME280;9707;49.158;8.632;2022-10-26T03:32:53;100347.97;;;22.82;45.65
19150;BME280;9707;49.158;8.632;2022-10-26T03:35:19;100348.94;;;22.81;45.49
19150;BME280;9707;49.158;8.632;2022-10-26T03:37:44;100350.66;;;22.82;45.90
19150;BME280;9707;49.158;8.632;2022-10-26T03:40:10;100356.09;;;22.82;45.94
19150;BME280;9707;49.158;8.632;2022-10-26T03:42:36;100358.66;;;22.84;45.77
19150;BME280;9707;49.158;8.632;2022-10-26T03:45:02;100358.66;;;22.84;45.29
19150;BME280;9707;49.158;8.632;2022-10-26T03:47:27;100372.41;;;22.82;45.25
19150;BME280;9707;49.158;8.632;2022-10-26T03:49:52;100361.66;;;22.81;45.40
19150;BME280;9707;49.158;8.632;2022-10-26T03:52:18;100369.81;;;22.81;45.49
19150;BME280;9707;49.158;8.632;2022-10-26T03:54:43;100367.09;;;22.81;45.33
19150;BME280;9707;49.158;8.632;2022-10-26T03:57:08;100368.94;;;22.80;45.72
19150;BME280;9707;49.158;8.632;2022-10-26T03:59:33;100365.22;;;22.81;45.79
19150;BME280;9707;49.158;8.632;2022-10-26T04:01:59;100355.22;;;22.82;45.90
19150;BME280;9707;49.158;8.632;2022-10-26T04:04:24;100357.94;;;22.82;45.71
19150;BME280;9707;49.158;8.632;2022-10-26T04:06:49;100352.50;;;22.82;45.66
19150;BME280;9707;49.158;8.632;2022-10-26T04:09:15;100363.25;;;22.83;45.65
19150;BME280;9707;49.158;8.632;2022-10-26T04:11:40;100357.81;;;22.83;45.15
19150;BME280;9707;49.158;8.632;2022-10-26T04:14:05;100348.94;;;22.81;45.35
19150;BME280;9707;49.158;8.632;2022-10-26T04:16:30;100354.38;;;22.81;45.64
19150;BME280;9707;49.158;8.632;2022-10-26T04:18:56;100352.50;;;22.82;45.48
19150;BME280;9707;49.158;8.632;2022-10-26T04:21:21;100339.81;;;22.82;45.72
19150;BME280;9707;49.158;8.632;2022-10-26T04:23:46;100339.81;;;22.82;45.67
19150;BME280;9707;49.158;8.632;2022-10-26T04:26:12;100347.78;;;22.84;45.85
19150;BME280;9707;49.158;8.632;2022-10-26T04:28:37;100351.50;;;22.83;45.28
19150;BME280;9707;49.158;8.632;2022-10-26T04:31:02;100349.81;;;22.82;45.45
19150;BME280;9707;49.158;8.632;2022-10-26T04:33:28;100350.66;;;22.82;45.58
19150;BME280;9707;49.158;8.632;2022-10-26T04:35:58;100355.22;;;22.82;45.61
19150;BME280;9707;49.158;8.632;2022-10-26T04:38:23;100360.66;;;22.82;45.44
19150;BME280;9707;49.158;8.632;2022-10-26T04:40:50;100365.22;;;22.81;45.22
19150;BME280;9707;49.158;8.632;2022-10-26T04:43:15;100363.63;;;22.79;45.11
19150;BME280;9707;49.158;8.632;2022-10-26T04:45:40;100352.06;;;22.77;45.13
19150;BME280;9707;49.158;8.632;2022-10-26T04:48:09;100338.50;;;22.77;45.42
19150;BME280;9707;49.158;8.632;2022-10-26T04:50:35;100324.03;;;22.76;45.98
19150;BME280;9707;49.158;8.632;2022-10-26T04:53:01;100314.03;;;22.77;46.14
19150;BME280;9707;49.158;8.632;2022-10-26T04:55:26;100306.59;;;22.79;46.15
19150;BME280;9707;49.158;8.632;2022-10-26T04:57:51;100307.47;;;22.79;45.87
19150;BME280;9707;49.158;8.632;2022-10-26T05:00:17;100323.78;;;22.79;45.26
19150;BME280;9707;49.158;8.632;2022-10-26T05:02:42;100312.03;;;22.79;45.11
19150;BME280;9707;49.158;8.632;2022-10-26T05:05:08;100324.91;;;22.77;45.18
19150;BME280;9707;49.158;8.632;2022-10-26T05:07:33;100321.47;;;22.75;45.19
19150;BME280;9707;49.158;8.632;2022-10-26T05:09:59;100330.59;;;22.74;45.43
19150;BME280;9707;49.158;8.632;2022-10-26T05:12:24;100344.19;;;22.74;45.48
19150;BME280;9707;49.158;8.632;2022-10-26T05:14:49;100347.91;;;22.73;45.50
19150;BME280;9707;49.158;8.632;2022-10-26T05:17:14;100349.78;;;22.72;45.34
19150;BME280;9707;49.158;8.632;2022-10-26T05:19:40;100366.19;;;22.71;45.33
19150;BME280;9707;49.158;8.632;2022-10-26T05:22:05;100356.34;;;22.70;45.33
19150;BME280;9707;49.158;8.632;2022-10-26T05:24:31;100369.91;;;22.70;45.52
19150;BME280;9707;49.158;8.632;2022-10-26T05:26:56;100361.78;;;22.70;45.59
19150;BME280;9707;49.158;8.632;2022-10-26T05:29:21;100374.47;;;22.69;45.31
19150;BME280;9707;49.158;8.632;2022-10-26T05:31:46;100387.19;;;22.69;45.42
19150;BME280;9707;49.158;8.632;2022-10-26T05:34:12;100396.31;;;22.68;45.67
19150;BME280;9707;49.158;8.632;2022-10-26T05:36:37;100405.47;;;22.67;45.57
19150;BME280;9707;49.158;8.632;2022-10-26T05:39:02;100398.34;;;22.66;45.43
19150;BME280;9707;49.158;8.632;2022-10-26T05:41:28;100409.19;;;22.66;45.67
19150;BME280;9707;49.158;8.632;2022-10-26T05:43:53;100412.91;;;22.65;45.59
19150;BME280;9707;49.158;8.632;2022-10-26T05:46:18;100415.63;;;22.65;45.57
19150;BME280;9707;49.158;8.632;2022-10-26T05:48:44;100413.75;;;22.65;45.85
19150;BME280;9707;49.158;8.632;2022-10-26T05:51:09;100405.75;;;22.64;45.51
19150;BME280;9707;49.158;8.632;2022-10-26T05:53:37;100414.63;;;22.66;45.79
19150;BME280;9707;49.158;8.632;2022-10-26T05:56:02;100403.75;;;22.66;45.98
19150;BME280;9707;49.158;8.632;2022-10-26T05:58:28;100417.22;;;22.67;45.83
19150;BME280;9707;49.158;8.632;2022-10-26T06:06:40;100416.88;;;22.61;45.30
19150;BME280;9707;49.158;8.632;2022-10-26T06:09:10;100426.03;;;22.60;45.33
19150;BME280;9707;49.158;8.632;2022-10-26T06:11:35;100431.59;;;22.58;45.39
19150;BME280;9707;49.158;8.632;2022-10-26T06:14:01;100432.72;;;22.56;45.38
19150;BME280;9707;49.158;8.632;2022-10-26T06:16:45;100435.56;;;22.54;45.32
19150;BME280;9707;49.158;8.632;2022-10-26T06:19:39;100437.56;;;22.52;45.45
19150;BME280;9707;49.158;8.632;2022-10-26T06:22:18;100445.84;;;22.51;45.51
19150;BME280;9707;49.158;8.632;2022-10-26T06:27:36;100453.97;;;22.51;45.78
19150;BME280;9707;49.158;8.632;2022-10-26T06:30:06;100466.53;;;22.52;45.73
19150;BME280;9707;49.158;8.632;2022-10-26T06:32:34;100468.25;;;22.53;45.90
19150;BME280;9707;49.158;8.632;2022-10-26T06:37:49;100465.53;;;22.53;45.80
19150;BME280;9707;49.158;8.632;2022-10-26T06:40:16;100470.97;;;22.53;45.77
19150;BME280;9707;49.158;8.632;2022-10-26T06:42:42;100469.13;;;22.53;45.81
19150;BME280;9707;49.158;8.632;2022-10-26T06:45:12;100468.25;;;22.53;45.69
19150;BME280;9707;49.158;8.632;2022-10-26T06:50:36;100475.69;;;22.51;45.67
19150;BME280;9707;49.158;8.632;2022-10-26T06:53:15;100480.41;;;22.49;45.79
19150;BME280;9707;49.158;8.632;2022-10-26T06:55:44;100478.66;;;22.48;45.96
19150;BME280;9707;49.158;8.632;2022-10-26T06:58:14;100487.81;;;22.47;45.89
19150;BME280;9707;49.158;8.632;2022-10-26T07:03:08;100491.25;;;22.49;46.02
19150;BME280;9707;49.158;8.632;2022-10-26T07:05:33;100476.94;;;22.47;45.97
19150;BME280;9707;49.158;8.632;2022-10-26T07:07:58;100468.81;;;22.47;46.08
19150;BME280;9707;49.158;8.632;2022-10-26T07:10:24;100472.25;;;22.49;46.37
19150;BME280;9707;49.158;8.632;2022-10-26T07:12:49;100468.81;;;22.47;45.91
19150;BME280;9707;49.158;8.632;2022-10-26T07:15:14;100479.53;;;22.48;45.97
19150;BME280;9707;49.158;8.632;2022-10-26T07:17:43;100482.13;;;22.50;45.94
19150;BME280;9707;49.158;8.632;2022-10-26T07:20:13;100494.81;;;22.49;46.07
19150;BME280;9707;49.158;8.632;2022-10-26T07:22:39;100502.84;;;22.51;46.42
19150;BME280;9707;49.158;8.632;2022-10-26T07:25:05;100510.88;;;22.52;46.15
19150;BME280;9707;49.158;8.632;2022-10-26T07:27:32;100517.00;;;22.54;46.14
19150;BME280;9707;49.158;8.632;2022-10-26T07:29:57;100522.31;;;22.56;46.44
19150;BME280;9707;49.158;8.632;2022-10-26T07:32:22;100525.75;;;22.58;46.11
19150;BME280;9707;49.158;8.632;2022-10-26T07:34:48;100524.78;;;22.59;46.12
19150;BME280;9707;49.158;8.632;2022-10-26T07:37:13;100527.50;;;22.59;46.03
19150;BME280;9707;49.158;8.632;2022-10-26T07:39:38;100531.03;;;22.59;46.04
19150;BME280;9707;49.158;8.632;2022-10-26T07:42:03;100531.78;;;22.61;46.02
19150;BME280;9707;49.158;8.632;2022-10-26T07:44:29;100540.06;;;22.60;45.84
19150;BME280;9707;49.158;8.632;2022-10-26T07:46:54;100534.63;;;22.60;45.85
19150;BME280;9707;49.158;8.632;2022-10-26T07:49:19;100538.34;;;22.59;45.83
19150;BME280;9707;49.158;8.632;2022-10-26T07:51:45;100540.19;;;22.58;46.02
19150;BME280;9707;49.158;8.632;2022-10-26T07:54:10;100544.63;;;22.59;46.31
19150;BME280;9707;49.158;8.632;2022-10-26T07:56:37;100554.34;;;22.62;46.28
19150;BME280;9707;49.158;8.632;2022-10-26T07:59:03;100545.22;;;22.63;46.39
19150;BME280;9707;49.158;8.632;2022-10-26T08:01:28;100548.69;;;22.65;46.44
19150;BME280;9707;49.158;8.632;2022-10-26T08:03:54;100549.53;;;22.65;46.25
19150;BME280;9707;49.158;8.632;2022-10-26T08:06:20;100554.81;;;22.67;46.24
19150;BME280;9707;49.158;8.632;2022-10-26T08:08:46;100550.28;;;22.67;46.23
19150;BME280;9707;49.158;8.632;2022-10-26T08:11:11;100544.69;;;22.69;46.17
19150;BME280;9707;49.158;8.632;2022-10-26T08:13:36;100547.41;;;22.69;46.11
19150;BME280;9707;49.158;8.632;2022-10-26T08:16:03;100553.56;;;22.71;46.23
19150;BME280;9707;49.158;8.632;2022-10-26T08:18:29;100555.41;;;22.70;46.15
19150;BME280;9707;49.158;8.632;2022-10-26T08:21:03;100547.16;;;22.72;46.25
19150;BME280;9707;49.158;8.632;2022-10-26T08:23:29;100558.00;;;22.72;46.42
19150;BME280;9707;49.158;8.632;2022-10-26T08:25:59;100560.59;;;22.73;46.20
19150;BME280;9707;49.158;8.632;2022-10-26T08:28:25;100557.75;;;22.75;46.18
19150;BME280;9707;49.158;8.632;2022-10-26T08:30:50;100566.75;;;22.75;46.23
19150;BME280;9707;49.158;8.632;2022-10-26T08:33:16;100567.63;;;22.76;46.36
19150;BME280;9707;49.158;8.632;2022-10-26T08:35:41;100563.91;;;22.77;46.35
19150;BME280;9707;49.158;8.632;2022-10-26T08:38:06;100560.19;;;22.78;46.39
19150;BME280;9707;49.158;8.632;2022-10-26T08:40:35;100556.47;;;22.79;46.23
19150;BME280;9707;49.158;8.632;2022-10-26T08:43:20;100562.66;;;22.81;46.31
19150;BME280;9707;49.158;8.632;2022-10-26T08:45:56;100576.22;;;22.81;46.37
19150;BME280;9707;49.158;8.632;2022-10-26T08:48:33;100576.22;;;22.81;46.23
19150;BME280;9707;49.158;8.632;2022-10-26T08:51:10;100577.94;;;22.82;46.15
19150;BME280;9707;49.158;8.632;2022-10-26T08:53:56;100584.25;;;22.82;46.35
19150;BME280;9707;49.158;8.632;2022-10-26T08:56:25;100583.25;;;22.83;46.35
19150;BME280;9707;49.158;8.632;2022-10-26T08:58:57;100581.38;;;22.84;46.19
19150;BME280;9707;49.158;8.632;2022-10-26T09:01:25;100583.97;;;22.85;46.21
19150;BME280;9707;49.158;8.632;2022-10-26T09:03:50;100588.56;;;22.85;46.45
19150;BME280;9707;49.158;8.632;2022-10-26T09:06:29;100587.44;;;22.87;46.37
19150;BME280;9707;49.158;8.632;2022-10-26T09:12:31;100588.28;;;22.88;46.32
19150;BME280;9707;49.158;8.632;2022-10-26T09:17:54;100604.34;;;22.91;46.39
19150;BME280;9707;49.158;8.632;2022-10-26T09:25:41;100606.03;;;22.92;46.66
19150;BME280;9707;49.158;8.632;2022-10-26T09:28:14;100607.75;;;22.93;46.77
19150;BME280;9707;49.158;8.632;2022-10-26T09:30:44;100612.06;;;22.95;46.64
19150;BME280;9707;49.158;8.632;2022-10-26T09:33:18;100598.38;;;22.97;46.57
19150;BME280;9707;49.158;8.632;2022-10-26T09:36:03;100602.78;;;22.98;46.61
19150;BME280;9707;49.158;8.632;2022-10-26T09:38:44;100601.78;;;22.99;46.50
19150;BME280;9707;49.158;8.632;2022-10-26T09:41:24;100612.53;;;23.00;46.52
19150;BME280;9707;49.158;8.632;2022-10-26T09:43:57;100616.13;;;23.01;46.44
19150;BME280;9707;49.158;8.632;2022-10-26T09:46:30;100624.16;;;23.02;46.54
19150;BME280;9707;49.158;8.632;2022-10-26T09:49:02;100630.19;;;23.06;46.51
19150;BME280;9707;49.158;8.632;2022-10-26T09:51:29;100626.47;;;23.07;46.54
19150;BME280;9707;49.158;8.632;2022-10-26T09:53:56;100633.63;;;23.08;46.39
19150;BME280;9707;49.158;8.632;2022-10-26T09:56:22;100634.38;;;23.10;46.46
19150;BME280;9707;49.158;8.632;2022-10-26T09:58:54;100630.53;;;23.12;46.41
19150;BME280;9707;49.158;8.632;2022-10-26T10:06:41;100639.25;;;23.16;46.58
19150;BME280;9707;49.158;8.632;2022-10-26T10:09:10;100645.44;;;23.18;46.54
19150;BME280;9707;49.158;8.632;2022-10-26T10:14:06;100647.16;;;23.19;46.44
19150;BME280;9707;49.158;8.632;2022-10-26T10:16:33;100639.88;;;23.19;46.60
19150;BME280;9707;49.158;8.632;2022-10-26T10:18:59;100641.59;;;23.20;46.56
19150;BME280;9707;49.158;8.632;2022-10-26T10:21:38;100653.22;;;23.22;46.74
19150;BME280;9707;49.158;8.632;2022-10-26T10:24:30;100654.06;;;23.23;46.57
19150;BME280;9707;49.158;8.632;2022-10-26T10:29:25;100660.09;;;23.26;46.68
19150;BME280;9707;49.158;8.632;2022-10-26T10:31:55;100656.41;;;23.27;46.56
19150;BME280;9707;49.158;8.632;2022-10-26T10:34:21;100657.13;;;23.29;46.50
19150;BME280;9707;49.158;8.632;2022-10-26T10:36:47;100658.72;;;23.32;46.50
19150;BME280;9707;49.158;8.632;2022-10-26T10:41:52;100663.28;;;23.31;46.49
19150;BME280;9707;49.158;8.632;2022-10-26T10:44:26;100661.31;;;23.33;46.61
19150;BME280;9707;49.158;8.632;2022-10-26T10:47:00;100661.00;;;23.36;46.58
19150;BME280;9707;49.158;8.632;2022-10-26T10:49:27;100665.31;;;23.39;46.72
19150;BME280;9707;49.158;8.632;2022-10-26T10:51:54;100672.22;;;23.43;46.45
19150;BME280;9707;49.158;8.632;2022-10-26T10:56:54;100679.97;;;23.47;46.46
19150;BME280;9707;49.158;8.632;2022-10-26T11:02:27;100678.00;;;23.49;46.57
19150;BME280;9707;49.158;8.632;2022-10-26T11:08:07;100680.59;;;23.51;45.99
19150;BME280;9707;49.158;8.632;2022-10-26T11:10:38;100687.75;;;23.52;45.74
19150;BME280;9707;49.158;8.632;2022-10-26T11:13:12;100689.47;;;23.53;46.00
19150;BME280;9707;49.158;8.632;2022-10-26T11:15:41;100690.91;;;23.57;45.83
19150;BME280;9707;49.158;8.632;2022-10-26T11:18:16;100690.63;;;23.60;45.93
19150;BME280;9707;49.158;8.632;2022-10-26T11:20:50;100694.81;;;23.64;45.86
19150;BME280;9707;49.158;8.632;2022-10-26T11:23:27;100691.72;;;23.68;45.85
19150;BME280;9707;49.158;8.632;2022-10-26T11:26:14;100684.13;;;23.72;45.59
19150;BME280;9707;49.158;8.632;2022-10-26T11:28:57;100693.88;;;23.74;45.57
19150;BME280;9707;49.158;8.632;2022-10-26T11:31:31;100697.19;;;23.78;45.38
19150;BME280;9707;49.158;8.632;2022-10-26T11:34:19;100696.94;;;23.81;45.39
19150;BME280;9707;49.158;8.632;2022-10-26T11:36:52;100706.50;;;23.85;45.24
19150;BME280;9707;49.158;8.632;2022-10-26T11:39:27;100698.22;;;23.86;45.06
19150;BME280;9707;49.158;8.632;2022-10-26T11:42:04;100700.81;;;23.88;45.16
19150;BME280;9707;49.158;8.632;2022-10-26T11:44:45;100704.28;;;23.90;45.10
19150;BME280;9707;49.158;8.632;2022-10-26T11:47:21;100702.00;;;23.95;45.16
19150;BME280;9707;49.158;8.632;2022-10-26T11:50:02;100705.47;;;23.97;45.10
19150;BME280;9707;49.158;8.632;2022-10-26T11:52:43;100693.59;;;23.98;45.14
19150;BME280;9707;49.158;8.632;2022-10-26T11:55:10;100698.91;;;23.99;45.07
19150;BME280;9707;49.158;8.632;2022-10-26T11:57:36;100706.94;;;24.01;45.21
19150;BME280;9707;49.158;8.632;2022-10-26T12:02:36;100708.97;;;24.08;44.85
19150;BME280;9707;49.158;8.632;2022-10-26T12:05:05;100709.56;;;24.12;44.76
19150;BME280;9707;49.158;8.632;2022-10-26T12:07:34;100713.00;;;24.14;44.83
19150;BME280;9707;49.158;8.632;2022-10-26T12:10:02;100707.28;;;24.17;44.59
19150;BME280;9707;49.158;8.632;2022-10-26T12:12:36;100711.72;;;24.18;44.70
19150;BME280;9707;49.158;8.632;2022-10-26T12:15:15;100709.59;;;24.21;44.49
19150;BME280;9707;49.158;8.632;2022-10-26T12:18:08;100713.88;;;24.24;44.65
19150;BME280;9707;49.158;8.632;2022-10-26T12:23:11;100715.59;;;24.25;44.31
19150;BME280;9707;49.158;8.632;2022-10-26T12:25:38;100719.91;;;24.27;44.40
19150;BME280;9707;49.158;8.632;2022-10-26T12:28:03;100722.50;;;24.29;44.33
19150;BME280;9707;49.158;8.632;2022-10-26T12:30:29;100723.22;;;24.31;44.25
19150;BME280;9707;49.158;8.632;2022-10-26T12:33:01;100721.22;;;24.33;44.44
19150;BME280;9707;49.158;8.632;2022-10-26T12:35:39;100732.84;;;24.35;44.31
19150;BME280;9707;49.158;8.632;2022-10-26T12:43:42;100721.09;;;24.34;44.31
19150;BME280;9707;49.158;8.632;2022-10-26T12:48:39;100729.84;;;24.38;44.20
19150;BME280;9707;49.158;8.632;2022-10-26T12:54:19;100713.22;;;24.41;43.96
19150;BME280;9707;49.158;8.632;2022-10-26T12:57:05;100720.41;;;24.42;44.06
19150;BME280;9707;49.158;8.632;2022-10-26T12:59:50;100726.56;;;24.44;43.83
19150;BME280;9707;49.158;8.632;2022-10-26T13:07:49;100731.88;;;24.45;43.84
19150;BME280;9707;49.158;8.632;2022-10-26T13:10:21;100724.56;;;24.46;44.14
19150;BME280;9707;49.158;8.632;2022-10-26T13:12:51;100731.75;;;24.47;44.21
19150;BME280;9707;49.158;8.632;2022-10-26T13:15:28;100734.31;;;24.48;44.29
19150;BME280;9707;49.158;8.632;2022-10-26T13:18:00;100729.72;;;24.49;43.75
19150;BME280;9707;49.158;8.632;2022-10-26T13:20:29;100730.59;;;24.49;43.85
19150;BME280;9707;49.158;8.632;2022-10-26T13:22:55;100734.91;;;24.52;43.71
19150;BME280;9707;49.158;8.632;2022-10-26T13:25:25;100734.91;;;24.52;43.47
19150;BME280;9707;49.158;8.632;2022-10-26T13:28:06;100732.03;;;24.53;43.25
19150;BME280;9707;49.158;8.632;2022-10-26T13:30:49;100732.19;;;24.52;43.48
19150;BME280;9707;49.158;8.632;2022-10-26T13:33:30;100732.19;;;24.52;43.41
19150;BME280;9707;49.158;8.632;2022-10-26T13:35:59;100731.19;;;24.53;43.49
19150;BME280;9707;49.158;8.632;2022-10-26T13:38:29;100735.63;;;24.54;43.21
19150;BME280;9707;49.158;8.632;2022-10-26T13:41:04;100738.22;;;24.55;43.39
19150;BME280;9707;49.158;8.632;2022-10-26T13:43:30;100733.78;;;24.54;43.07
19150;BME280;9707;49.158;8.632;2022-10-26T13:45:58;100738.09;;;24.57;43.44
19150;BME280;9707;49.158;8.632;2022-10-26T13:48:39;100742.66;;;24.56;43.19
19150;BME280;9707;49.158;8.632;2022-10-26T13:51:27;100740.94;;;24.55;43.18
19150;BME280;9707;49.158;8.632;2022-10-26T13:54:02;100744.28;;;24.59;43.37
19150;BME280;9707;49.158;8.632;2022-10-26T13:56:34;100744.28;;;24.59;43.55
19150;BME280;9707;49.158;8.632;2022-10-26T13:59:02;100739.53;;;24.61;43.59
19150;BME280;9707;49.158;8.632;2022-10-26T14:01:29;100740.41;;;24.61;43.69
19150;BME280;9707;49.158;8.632;2022-10-26T14:03:55;100748.44;;;24.63;43.71
19150;BME280;9707;49.158;8.632;2022-10-26T14:06:28;100743.84;;;24.63;43.41
19150;BME280;9707;49.158;8.632;2022-10-26T14:08:59;100754.75;;;24.63;43.28
19150;BME280;9707;49.158;8.632;2022-10-26T14:11:33;100766.50;;;24.64;43.41
19150;BME280;9707;49.158;8.632;2022-10-26T14:14:00;100765.63;;;24.63;43.06
19150;BME280;9707;49.158;8.632;2022-10-26T14:16:28;100768.53;;;24.62;43.12
19150;BME280;9707;49.158;8.632;2022-10-26T14:18:54;100774.81;;;24.62;43.33
19150;BME280;9707;49.158;8.632;2022-10-26T14:21:21;100773.97;;;24.62;43.45
19150;BME280;9707;49.158;8.632;2022-10-26T14:23:50;100776.69;;;24.62;43.68
19150;BME280;9707;49.158;8.632;2022-10-26T14:26:28;100776.69;;;24.62;43.67
19150;BME280;9707;49.158;8.632;2022-10-26T14:28:56;100782.16;;;24.62;43.32
19150;BME280;9707;49.158;8.632;2022-10-26T14:31:25;100782.84;;;24.64;43.25
19150;BME280;9707;49.158;8.632;2022-10-26T14:33:52;100783.72;;;24.64;43.53
19150;BME280;9707;49.158;8.632;2022-10-26T14:36:21;100781.84;;;24.65;43.57
19150;BME280;9707;49.158;8.632;2022-10-26T14:38:51;100792.59;;;24.66;43.59
19150;BME280;9707;49.158;8.632;2022-10-26T14:41:18;100783.44;;;24.67;43.35
19150;BME280;9707;49.158;8.632;2022-10-26T14:43:45;100787.03;;;24.68;43.48